ADDS TAF Data INFO
IDs: Format: Raw Decoded Include METARs

Data at: 1544 UTC 18 Nov 2017

KTEX 181515Z AUTO 12005KT 10SM CLR A3033 RMK AO2

KTEX 181120Z 1812/1912 33006KT P6SM SCT040
  FM181700 26004KT P6SM SKC
  FM182100 28008KT P6SM SKC
  FM190000 VRB03KT P6SM SKC